sensor_id;sensor_type;location;lat;lon;timestamp;P1;durP1;ratioP1;P2;durP2;ratioP2
34278;SDS011;20538;51.528;9.942;2023-03-12T00:00:00;10.30;;;4.50;;
34278;SDS011;20538;51.528;9.942;2023-03-12T00:02:28;9.63;;;4.47;;
34278;SDS011;20538;51.528;9.942;2023-03-12T00:04:54;6.82;;;3.30;;
34278;SDS011;20538;51.528;9.942;2023-03-12T00:07:20;7.65;;;3.28;;
34278;SDS011;20538;51.528;9.942;2023-03-12T00:09:45;7.90;;;3.60;;
34278;SDS011;20538;51.528;9.942;2023-03-12T00:12:11;8.85;;;4.25;;
34278;SDS011;20538;51.528;9.942;2023-03-12T00:14:37;11.95;;;3.22;;
34278;SDS011;20538;51.528;9.942;2023-03-12T00:17:02;8.95;;;3.38;;
34278;SDS011;20538;51.528;9.942;2023-03-12T00:19:28;8.95;;;3.33;;
34278;SDS011;20538;51.528;9.942;2023-03-12T00:21:54;8.48;;;3.50;;
34278;SDS011;20538;51.528;9.942;2023-03-12T00:24:19;9.77;;;3.85;;
34278;SDS011;20538;51.528;9.942;2023-03-12T00:26:45;7.63;;;3.42;;
34278;SDS011;20538;51.528;9.942;2023-03-12T00:29:11;15.57;;;5.13;;
34278;SDS011;20538;51.528;9.942;2023-03-12T00:31:36;12.80;;;4.75;;
34278;SDS011;20538;51.528;9.942;2023-03-12T00:34:02;14.25;;;4.18;;
34278;SDS011;20538;51.528;9.942;2023-03-12T00:36:28;9.38;;;3.28;;
34278;SDS011;20538;51.528;9.942;2023-03-12T00:38:56;13.10;;;3.83;;
34278;SDS011;20538;51.528;9.942;2023-03-12T00:41:23;10.52;;;3.60;;
34278;SDS011;20538;51.528;9.942;2023-03-12T00:43:50;15.93;;;3.65;;
34278;SDS011;20538;51.528;9.942;2023-03-12T00:46:17;7.15;;;3.63;;
34278;SDS011;20538;51.528;9.942;2023-03-12T00:48:43;11.90;;;4.30;;
34278;SDS011;20538;51.528;9.942;2023-03-12T00:51:09;11.75;;;4.70;;
34278;SDS011;20538;51.528;9.942;2023-03-12T00:53:35;16.63;;;5.68;;
34278;SDS011;20538;51.528;9.942;2023-03-12T00:56:01;13.98;;;4.95;;
34278;SDS011;20538;51.528;9.942;2023-03-12T00:58:28;11.63;;;5.30;;
34278;SDS011;20538;51.528;9.942;2023-03-12T01:00:54;14.07;;;4.97;;
34278;SDS011;20538;51.528;9.942;2023-03-12T01:03:19;11.75;;;5.53;;
34278;SDS011;20538;51.528;9.942;2023-03-12T01:05:45;10.40;;;4.72;;
34278;SDS011;20538;51.528;9.942;2023-03-12T01:08:11;15.40;;;5.22;;
34278;SDS011;20538;51.528;9.942;2023-03-12T01:10:40;12.23;;;5.18;;
34278;SDS011;20538;51.528;9.942;2023-03-12T01:13:06;16.15;;;4.85;;
34278;SDS011;20538;51.528;9.942;2023-03-12T01:15:32;5.38;;;3.33;;
34278;SDS011;20538;51.528;9.942;2023-03-12T01:17:58;7.68;;;3.15;;
34278;SDS011;20538;51.528;9.942;2023-03-12T01:20:24;8.52;;;3.25;;
34278;SDS011;20538;51.528;9.942;2023-03-12T01:22:50;5.18;;;3.20;;
34278;SDS011;20538;51.528;9.942;2023-03-12T01:25:16;6.47;;;3.10;;
34278;SDS011;20538;51.528;9.942;2023-03-12T01:27:41;6.05;;;2.67;;
34278;SDS011;20538;51.528;9.942;2023-03-12T01:30:07;6.13;;;2.55;;
34278;SDS011;20538;51.528;9.942;2023-03-12T01:32:34;4.05;;;2.22;;
34278;SDS011;20538;51.528;9.942;2023-03-12T01:34:59;3.13;;;2.13;;
34278;SDS011;20538;51.528;9.942;2023-03-12T01:37:25;9.52;;;2.72;;
34278;SDS011;20538;51.528;9.942;2023-03-12T01:39:51;5.70;;;2.38;;
34278;SDS011;20538;51.528;9.942;2023-03-12T01:42:17;5.90;;;2.35;;
34278;SDS011;20538;51.528;9.942;2023-03-12T01:44:56;6.47;;;2.60;;
34278;SDS011;20538;51.528;9.942;2023-03-12T01:47:23;5.82;;;2.80;;
34278;SDS011;20538;51.528;9.942;2023-03-12T01:49:50;8.80;;;2.88;;
34278;SDS011;20538;51.528;9.942;2023-03-12T01:52:24;7.68;;;2.67;;
34278;SDS011;20538;51.528;9.942;2023-03-12T02:00:07;4.30;;;2.20;;
34278;SDS011;20538;51.528;9.942;2023-03-12T02:02:36;12.07;;;2.67;;
34278;SDS011;20538;51.528;9.942;2023-03-12T02:05:13;6.65;;;2.38;;
34278;SDS011;20538;51.528;9.942;2023-03-12T02:07:47;10.80;;;2.83;;
34278;SDS011;20538;51.528;9.942;2023-03-12T02:10:13;9.38;;;2.30;;
34278;SDS011;20538;51.528;9.942;2023-03-12T02:12:40;8.05;;;2.42;;
34278;SDS011;20538;51.528;9.942;2023-03-12T02:15:05;5.28;;;2.45;;
34278;SDS011;20538;51.528;9.942;2023-03-12T02:17:32;8.18;;;2.78;;
34278;SDS011;20538;51.528;9.942;2023-03-12T02:20:03;5.97;;;2.50;;
34278;SDS011;20538;51.528;9.942;2023-03-12T02:23:05;4.65;;;2.33;;
34278;SDS011;20538;51.528;9.942;2023-03-12T02:25:52;11.02;;;2.95;;
34278;SDS011;20538;51.528;9.942;2023-03-12T02:28:20;6.75;;;2.78;;
34278;SDS011;20538;51.528;9.942;2023-03-12T02:30:49;7.05;;;2.63;;
34278;SDS011;20538;51.528;9.942;2023-03-12T02:33:16;6.68;;;2.97;;
34278;SDS011;20538;51.528;9.942;2023-03-12T02:35:43;5.93;;;3.08;;
34278;SDS011;20538;51.528;9.942;2023-03-12T02:41:01;9.02;;;3.20;;
34278;SDS011;20538;51.528;9.942;2023-03-12T02:46:39;10.20;;;2.95;;
34278;SDS011;20538;51.528;9.942;2023-03-12T02:49:07;8.77;;;2.45;;
34278;SDS011;20538;51.528;9.942;2023-03-12T02:51:33;5.15;;;2.50;;
34278;SDS011;20538;51.528;9.942;2023-03-12T02:53:59;6.40;;;3.10;;
34278;SDS011;20538;51.528;9.942;2023-03-12T02:56:25;6.80;;;2.60;;
34278;SDS011;20538;51.528;9.942;2023-03-12T02:58:52;10.07;;;3.35;;
34278;SDS011;20538;51.528;9.942;2023-03-12T03:01:18;10.30;;;2.40;;
34278;SDS011;20538;51.528;9.942;2023-03-12T03:03:44;6.47;;;2.60;;
34278;SDS011;20538;51.528;9.942;2023-03-12T03:06:10;6.20;;;2.75;;
34278;SDS011;20538;51.528;9.942;2023-03-12T03:08:36;6.05;;;2.25;;
34278;SDS011;20538;51.528;9.942;2023-03-12T03:11:02;8.20;;;3.17;;
34278;SDS011;20538;51.528;9.942;2023-03-12T03:13:28;7.63;;;2.47;;
34278;SDS011;20538;51.528;9.942;2023-03-12T03:15:54;9.13;;;3.17;;
34278;SDS011;20538;51.528;9.942;2023-03-12T03:18:24;14.38;;;3.28;;
34278;SDS011;20538;51.528;9.942;2023-03-12T03:23:22;4.30;;;2.33;;
34278;SDS011;20538;51.528;9.942;2023-03-12T03:25:48;9.88;;;3.08;;
34278;SDS011;20538;51.528;9.942;2023-03-12T03:28:14;10.82;;;3.05;;
34278;SDS011;20538;51.528;9.942;2023-03-12T03:30:39;8.85;;;2.60;;
34278;SDS011;20538;51.528;9.942;2023-03-12T03:33:05;4.50;;;2.72;;
34278;SDS011;20538;51.528;9.942;2023-03-12T03:35:32;7.60;;;2.65;;
34278;SDS011;20538;51.528;9.942;2023-03-12T03:37:58;10.32;;;2.50;;
34278;SDS011;20538;51.528;9.942;2023-03-12T03:40:23;5.25;;;2.60;;
34278;SDS011;20538;51.528;9.942;2023-03-12T03:42:49;4.30;;;2.30;;
34278;SDS011;20538;51.528;9.942;2023-03-12T03:45:15;7.25;;;2.42;;
34278;SDS011;20538;51.528;9.942;2023-03-12T03:47:41;6.97;;;2.40;;
34278;SDS011;20538;51.528;9.942;2023-03-12T03:50:07;9.65;;;3.08;;
34278;SDS011;20538;51.528;9.942;2023-03-12T03:52:33;4.22;;;2.35;;
34278;SDS011;20538;51.528;9.942;2023-03-12T03:54:59;3.60;;;2.20;;
34278;SDS011;20538;51.528;9.942;2023-03-12T03:57:25;6.15;;;2.55;;
34278;SDS011;20538;51.528;9.942;2023-03-12T03:59:51;4.30;;;2.15;;
34278;SDS011;20538;51.528;9.942;2023-03-12T04:02:17;5.78;;;2.60;;
34278;SDS011;20538;51.528;9.942;2023-03-12T04:04:42;8.60;;;2.30;;
34278;SDS011;20538;51.528;9.942;2023-03-12T04:07:08;5.15;;;2.28;;
34278;SDS011;20538;51.528;9.942;2023-03-12T04:09:34;6.25;;;2.60;;
34278;SDS011;20538;51.528;9.942;2023-03-12T04:12:00;6.28;;;2.28;;
34278;SDS011;20538;51.528;9.942;2023-03-12T04:14:26;7.68;;;2.95;;
34278;SDS011;20538;51.528;9.942;2023-03-12T04:16:52;3.80;;;2.20;;
34278;SDS011;20538;51.528;9.942;2023-03-12T04:19:18;5.40;;;2.38;;
34278;SDS011;20538;51.528;9.942;2023-03-12T04:21:43;8.02;;;2.90;;
34278;SDS011;20538;51.528;9.942;2023-03-12T04:24:12;8.65;;;2.95;;
34278;SDS011;20538;51.528;9.942;2023-03-12T04:26:39;6.63;;;2.38;;
34278;SDS011;20538;51.528;9.942;2023-03-12T04:29:05;5.10;;;2.55;;
34278;SDS011;20538;51.528;9.942;2023-03-12T04:31:30;5.45;;;2.95;;
34278;SDS011;20538;51.528;9.942;2023-03-12T04:33:56;4.75;;;2.38;;
34278;SDS011;20538;51.528;9.942;2023-03-12T04:36:22;7.13;;;3.08;;
34278;SDS011;20538;51.528;9.942;2023-03-12T04:38:48;6.00;;;2.80;;
34278;SDS011;20538;51.528;9.942;2023-03-12T04:41:14;7.70;;;3.00;;
34278;SDS011;20538;51.528;9.942;2023-03-12T04:43:40;8.35;;;3.08;;
34278;SDS011;20538;51.528;9.942;2023-03-12T04:46:07;6.07;;;2.67;;
34278;SDS011;20538;51.528;9.942;2023-03-12T04:48:33;5.97;;;3.05;;
34278;SDS011;20538;51.528;9.942;2023-03-12T04:50:59;9.93;;;2.97;;
34278;SDS011;20538;51.528;9.942;2023-03-12T04:53:25;4.50;;;2.72;;
34278;SDS011;20538;51.528;9.942;2023-03-12T04:55:51;7.10;;;2.88;;
34278;SDS011;20538;51.528;9.942;2023-03-12T04:58:17;6.65;;;2.72;;
34278;SDS011;20538;51.528;9.942;2023-03-12T05:00:43;5.07;;;3.03;;
34278;SDS011;20538;51.528;9.942;2023-03-12T05:03:09;8.68;;;2.80;;
34278;SDS011;20538;51.528;9.942;2023-03-12T05:05:35;5.50;;;2.67;;
34278;SDS011;20538;51.528;9.942;2023-03-12T05:08:01;6.72;;;2.65;;
34278;SDS011;20538;51.528;9.942;2023-03-12T05:10:27;4.68;;;2.80;;
34278;SDS011;20538;51.528;9.942;2023-03-12T05:12:53;7.47;;;3.00;;
34278;SDS011;20538;51.528;9.942;2023-03-12T05:15:18;5.80;;;3.00;;
34278;SDS011;20538;51.528;9.942;2023-03-12T05:17:44;7.85;;;2.75;;
34278;SDS011;20538;51.528;9.942;2023-03-12T05:20:10;4.15;;;2.90;;
34278;SDS011;20538;51.528;9.942;2023-03-12T05:22:37;6.55;;;3.10;;
34278;SDS011;20538;51.528;9.942;2023-03-12T05:25:03;4.30;;;2.30;;
34278;SDS011;20538;51.528;9.942;2023-03-12T05:27:29;6.25;;;2.50;;
34278;SDS011;20538;51.528;9.942;2023-03-12T05:29:55;7.75;;;3.15;;
34278;SDS011;20538;51.528;9.942;2023-03-12T05:32:21;7.38;;;2.90;;
34278;SDS011;20538;51.528;9.942;2023-03-12T05:34:47;8.05;;;2.92;;
34278;SDS011;20538;51.528;9.942;2023-03-12T05:37:13;7.78;;;2.97;;
34278;SDS011;20538;51.528;9.942;2023-03-12T05:39:38;10.40;;;2.95;;
34278;SDS011;20538;51.528;9.942;2023-03-12T05:42:10;9.20;;;3.05;;
34278;SDS011;20538;51.528;9.942;2023-03-12T05:44:36;4.82;;;2.88;;
34278;SDS011;20538;51.528;9.942;2023-03-12T05:47:02;5.00;;;2.97;;
34278;SDS011;20538;51.528;9.942;2023-03-12T05:49:28;5.10;;;2.55;;
34278;SDS011;20538;51.528;9.942;2023-03-12T05:51:55;8.20;;;2.72;;
34278;SDS011;20538;51.528;9.942;2023-03-12T05:54:21;4.45;;;2.60;;
34278;SDS011;20538;51.528;9.942;2023-03-12T05:56:47;3.92;;;2.53;;
34278;SDS011;20538;51.528;9.942;2023-03-12T05:59:12;6.05;;;2.92;;
34278;SDS011;20538;51.528;9.942;2023-03-12T06:01:38;7.78;;;2.50;;
34278;SDS011;20538;51.528;9.942;2023-03-12T06:04:04;6.70;;;2.90;;
34278;SDS011;20538;51.528;9.942;2023-03-12T06:06:31;5.13;;;2.50;;
34278;SDS011;20538;51.528;9.942;2023-03-12T06:08:57;5.45;;;2.60;;
34278;SDS011;20538;51.528;9.942;2023-03-12T06:11:23;5.68;;;2.80;;
34278;SDS011;20538;51.528;9.942;2023-03-12T06:13:49;5.28;;;2.60;;
34278;SDS011;20538;51.528;9.942;2023-03-12T06:16:15;7.43;;;2.70;;
34278;SDS011;20538;51.528;9.942;2023-03-12T06:18:43;7.65;;;2.70;;
34278;SDS011;20538;51.528;9.942;2023-03-12T06:21:15;5.57;;;3.47;;
34278;SDS011;20538;51.528;9.942;2023-03-12T06:23:43;6.95;;;3.20;;
34278;SDS011;20538;51.528;9.942;2023-03-12T06:26:09;5.85;;;3.42;;
34278;SDS011;20538;51.528;9.942;2023-03-12T06:28:35;6.93;;;3.50;;
34278;SDS011;20538;51.528;9.942;2023-03-12T06:31:02;6.07;;;3.15;;
34278;SDS011;20538;51.528;9.942;2023-03-12T06:33:28;8.40;;;3.75;;
34278;SDS011;20538;51.528;9.942;2023-03-12T06:35:57;10.63;;;3.95;;
34278;SDS011;20538;51.528;9.942;2023-03-12T06:38:24;8.00;;;3.83;;
34278;SDS011;20538;51.528;9.942;2023-03-12T06:43:19;6.03;;;2.80;;
34278;SDS011;20538;51.528;9.942;2023-03-12T06:45:45;6.22;;;3.03;;
34278;SDS011;20538;51.528;9.942;2023-03-12T06:48:11;8.20;;;3.00;;
34278;SDS011;20538;51.528;9.942;2023-03-12T06:50:36;5.82;;;2.67;;
34278;SDS011;20538;51.528;9.942;2023-03-12T06:53:02;5.88;;;2.40;;
34278;SDS011;20538;51.528;9.942;2023-03-12T06:55:28;5.80;;;2.50;;
34278;SDS011;20538;51.528;9.942;2023-03-12T06:57:53;5.80;;;2.60;;
34278;SDS011;20538;51.528;9.942;2023-03-12T07:00:19;7.95;;;3.47;;
34278;SDS011;20538;51.528;9.942;2023-03-12T07:02:45;6.95;;;2.85;;
34278;SDS011;20538;51.528;9.942;2023-03-12T07:05:11;9.43;;;2.38;;
34278;SDS011;20538;51.528;9.942;2023-03-12T07:07:36;6.45;;;3.35;;
34278;SDS011;20538;51.528;9.942;2023-03-12T07:10:03;5.75;;;2.30;;
34278;SDS011;20538;51.528;9.942;2023-03-12T07:12:30;6.88;;;2.67;;
34278;SDS011;20538;51.528;9.942;2023-03-12T07:14:59;7.47;;;3.08;;
34278;SDS011;20538;51.528;9.942;2023-03-12T07:17:24;6.50;;;3.08;;
34278;SDS011;20538;51.528;9.942;2023-03-12T07:19:51;9.10;;;2.70;;
34278;SDS011;20538;51.528;9.942;2023-03-12T07:22:16;9.57;;;2.55;;
34278;SDS011;20538;51.528;9.942;2023-03-12T07:24:42;5.68;;;2.42;;
34278;SDS011;20538;51.528;9.942;2023-03-12T07:27:08;10.35;;;4.10;;
34278;SDS011;20538;51.528;9.942;2023-03-12T07:29:33;7.65;;;3.70;;
34278;SDS011;20538;51.528;9.942;2023-03-12T07:31:59;6.65;;;2.55;;
34278;SDS011;20538;51.528;9.942;2023-03-12T07:34:25;6.25;;;2.55;;
34278;SDS011;20538;51.528;9.942;2023-03-12T07:36:50;6.35;;;2.55;;
34278;SDS011;20538;51.528;9.942;2023-03-12T07:39:16;6.47;;;2.13;;
34278;SDS011;20538;51.528;9.942;2023-03-12T07:41:43;5.97;;;2.25;;
34278;SDS011;20538;51.528;9.942;2023-03-12T07:44:08;12.82;;;3.60;;
34278;SDS011;20538;51.528;9.942;2023-03-12T07:46:34;7.70;;;2.35;;
34278;SDS011;20538;51.528;9.942;2023-03-12T07:49:00;6.43;;;2.40;;
34278;SDS011;20538;51.528;9.942;2023-03-12T07:51:26;4.75;;;2.25;;
34278;SDS011;20538;51.528;9.942;2023-03-12T07:53:52;8.85;;;2.42;;
34278;SDS011;20538;51.528;9.942;2023-03-12T07:56:17;8.80;;;3.45;;
34278;SDS011;20538;51.528;9.942;2023-03-12T07:58:43;7.00;;;3.35;;
34278;SDS011;20538;51.528;9.942;2023-03-12T08:01:09;10.25;;;3.47;;
34278;SDS011;20538;51.528;9.942;2023-03-12T08:03:34;7.82;;;2.80;;
34278;SDS011;20538;51.528;9.942;2023-03-12T08:06:01;8.40;;;3.72;;
34278;SDS011;20538;51.528;9.942;2023-03-12T08:08:27;11.98;;;3.17;;
34278;SDS011;20538;51.528;9.942;2023-03-12T08:10:54;5.22;;;2.78;;
34278;SDS011;20538;51.528;9.942;2023-03-12T08:13:21;6.20;;;2.83;;
34278;SDS011;20538;51.528;9.942;2023-03-12T08:15:51;9.75;;;2.13;;
34278;SDS011;20538;51.528;9.942;2023-03-12T08:18:18;5.47;;;2.25;;
34278;SDS011;20538;51.528;9.942;2023-03-12T08:20:44;11.00;;;2.38;;
34278;SDS011;20538;51.528;9.942;2023-03-12T08:23:13;7.45;;;2.92;;
34278;SDS011;20538;51.528;9.942;2023-03-12T08:25:39;8.05;;;2.75;;
34278;SDS011;20538;51.528;9.942;2023-03-12T08:28:04;5.90;;;3.25;;
34278;SDS011;20538;51.528;9.942;2023-03-12T08:30:30;6.07;;;2.67;;
34278;SDS011;20538;51.528;9.942;2023-03-12T08:32:56;7.55;;;2.70;;
34278;SDS011;20538;51.528;9.942;2023-03-12T08:35:22;10.93;;;3.75;;
34278;SDS011;20538;51.528;9.942;2023-03-12T08:37:48;10.90;;;3.20;;
34278;SDS011;20538;51.528;9.942;2023-03-12T08:40:13;13.48;;;3.03;;
34278;SDS011;20538;51.528;9.942;2023-03-12T08:42:40;7.18;;;3.55;;
34278;SDS011;20538;51.528;9.942;2023-03-12T08:45:06;6.15;;;2.55;;
34278;SDS011;20538;51.528;9.942;2023-03-12T08:47:33;6.13;;;3.25;;
34278;SDS011;20538;51.528;9.942;2023-03-12T08:49:59;6.30;;;2.55;;
34278;SDS011;20538;51.528;9.942;2023-03-12T08:52:25;7.75;;;2.60;;
34278;SDS011;20538;51.528;9.942;2023-03-12T08:54:50;6.25;;;2.50;;
34278;SDS011;20538;51.528;9.942;2023-03-12T08:57:16;7.88;;;3.00;;
34278;SDS011;20538;51.528;9.942;2023-03-12T08:59:42;9.55;;;3.22;;
34278;SDS011;20538;51.528;9.942;2023-03-12T09:02:09;7.40;;;2.85;;
34278;SDS011;20538;51.528;9.942;2023-03-12T09:04:36;5.15;;;2.75;;
34278;SDS011;20538;51.528;9.942;2023-03-12T09:07:02;14.10;;;4.00;;
34278;SDS011;20538;51.528;9.942;2023-03-12T09:09:29;12.65;;;3.78;;
34278;SDS011;20538;51.528;9.942;2023-03-12T09:11:55;6.00;;;2.50;;
34278;SDS011;20538;51.528;9.942;2023-03-12T09:14:22;5.47;;;2.42;;
34278;SDS011;20538;51.528;9.942;2023-03-12T09:16:48;8.38;;;2.95;;
34278;SDS011;20538;51.528;9.942;2023-03-12T09:19:14;7.53;;;2.78;;
34278;SDS011;20538;51.528;9.942;2023-03-12T09:21:39;4.72;;;2.60;;
34278;SDS011;20538;51.528;9.942;2023-03-12T09:24:06;8.60;;;2.97;;
34278;SDS011;20538;51.528;9.942;2023-03-12T09:26:32;9.55;;;2.25;;
34278;SDS011;20538;51.528;9.942;2023-03-12T09:28:58;8.63;;;2.45;;
34278;SDS011;20538;51.528;9.942;2023-03-12T09:31:24;5.75;;;2.33;;
34278;SDS011;20538;51.528;9.942;2023-03-12T09:33:50;6.38;;;2.50;;
34278;SDS011;20538;51.528;9.942;2023-03-12T09:36:16;6.70;;;2.60;;
34278;SDS011;20538;51.528;9.942;2023-03-12T09:38:42;5.85;;;2.55;;
34278;SDS011;20538;51.528;9.942;2023-03-12T09:41:16;6.82;;;2.67;;
34278;SDS011;20538;51.528;9.942;2023-03-12T09:43:51;7.30;;;3.17;;
34278;SDS011;20538;51.528;9.942;2023-03-12T09:49:40;8.90;;;2.58;;
34278;SDS011;20538;51.528;9.942;2023-03-12T09:57:41;8.65;;;2.33;;
34278;SDS011;20538;51.528;9.942;2023-03-12T10:00:12;8.98;;;2.17;;
34278;SDS011;20538;51.528;9.942;2023-03-12T10:02:50;4.70;;;2.30;;
34278;SDS011;20538;51.528;9.942;2023-03-12T10:05:35;8.93;;;3.08;;
34278;SDS011;20538;51.528;9.942;2023-03-12T10:10:54;5.88;;;1.88;;
34278;SDS011;20538;51.528;9.942;2023-03-12T10:16:29;6.35;;;2.45;;
34278;SDS011;20538;51.528;9.942;2023-03-12T10:27:44;11.52;;;2.80;;
34278;SDS011;20538;51.528;9.942;2023-03-12T10:30:13;7.97;;;2.53;;
34278;SDS011;20538;51.528;9.942;2023-03-12T10:32:50;10.15;;;2.47;;
34278;SDS011;20538;51.528;9.942;2023-03-12T10:35:22;5.18;;;2.55;;
34278;SDS011;20538;51.528;9.942;2023-03-12T10:40:21;8.95;;;4.38;;
34278;SDS011;20538;51.528;9.942;2023-03-12T10:42:50;9.63;;;2.80;;
34278;SDS011;20538;51.528;9.942;2023-03-12T10:48:07;9.40;;;3.95;;
34278;SDS011;20538;51.528;9.942;2023-03-12T10:50:36;18.08;;;6.97;;
34278;SDS011;20538;51.528;9.942;2023-03-12T10:53:11;7.93;;;3.88;;
34278;SDS011;20538;51.528;9.942;2023-03-12T10:55:37;13.85;;;4.72;;
34278;SDS011;20538;51.528;9.942;2023-03-12T10:58:03;13.52;;;5.30;;
34278;SDS011;20538;51.528;9.942;2023-03-12T11:00:30;10.80;;;4.28;;
34278;SDS011;20538;51.528;9.942;2023-03-12T11:03:00;8.90;;;3.50;;
34278;SDS011;20538;51.528;9.942;2023-03-12T11:08:33;6.80;;;2.03;;
34278;SDS011;20538;51.528;9.942;2023-03-12T11:11:01;6.15;;;2.90;;
34278;SDS011;20538;51.528;9.942;2023-03-12T11:18:53;9.73;;;3.17;;
34278;SDS011;20538;51.528;9.942;2023-03-12T11:21:31;9.93;;;3.40;;
34278;SDS011;20538;51.528;9.942;2023-03-12T11:24:19;8.02;;;3.45;;
34278;SDS011;20538;51.528;9.942;2023-03-12T11:26:51;7.03;;;3.38;;
34278;SDS011;20538;51.528;9.942;2023-03-12T11:29:38;8.15;;;3.47;;
34278;SDS011;20538;51.528;9.942;2023-03-12T11:34:44;7.97;;;3.63;;
34278;SDS011;20538;51.528;9.942;2023-03-12T11:37:24;4.82;;;3.28;;
34278;SDS011;20538;51.528;9.942;2023-03-12T11:48:09;11.20;;;3.97;;
34278;SDS011;20538;51.528;9.942;2023-03-12T12:12:51;10.30;;;3.72;;
34278;SDS011;20538;51.528;9.942;2023-03-12T12:15:36;10.55;;;3.45;;
34278;SDS011;20538;51.528;9.942;2023-03-12T12:26:43;6.38;;;3.45;;
34278;SDS011;20538;51.528;9.942;2023-03-12T12:32:06;8.63;;;3.55;;
34278;SDS011;20538;51.528;9.942;2023-03-12T12:34:51;11.45;;;4.03;;
34278;SDS011;20538;51.528;9.942;2023-03-12T12:40:28;7.78;;;3.97;;
34278;SDS011;20538;51.528;9.942;2023-03-12T12:43:03;15.98;;;4.90;;
34278;SDS011;20538;51.528;9.942;2023-03-12T12:45:39;10.98;;;4.20;;
34278;SDS011;20538;51.528;9.942;2023-03-12T12:48:16;7.25;;;3.95;;
34278;SDS011;20538;51.528;9.942;2023-03-12T12:51:00;7.78;;;4.03;;
34278;SDS011;20538;51.528;9.942;2023-03-12T12:53:32;16.35;;;4.10;;
34278;SDS011;20538;51.528;9.942;2023-03-12T12:56:07;11.80;;;3.90;;
34278;SDS011;20538;51.528;9.942;2023-03-12T12:58:59;12.10;;;3.88;;
34278;SDS011;20538;51.528;9.942;2023-03-12T13:01:27;9.82;;;3.92;;
34278;SDS011;20538;51.528;9.942;2023-03-12T13:04:03;9.68;;;4.03;;
34278;SDS011;20538;51.528;9.942;2023-03-12T13:09:33;11.93;;;4.22;;
34278;SDS011;20538;51.528;9.942;2023-03-12T13:12:13;9.70;;;4.32;;
34278;SDS011;20538;51.528;9.942;2023-03-12T13:14:41;8.63;;;3.80;;
34278;SDS011;20538;51.528;9.942;2023-03-12T13:17:59;8.65;;;4.03;;
34278;SDS011;20538;51.528;9.942;2023-03-12T13:20:18;10.80;;;4.25;;
34278;SDS011;20538;51.528;9.942;2023-03-12T13:33:51;12.77;;;5.68;;
34278;SDS011;20538;51.528;9.942;2023-03-12T13:36:22;5.70;;;3.35;;
34278;SDS011;20538;51.528;9.942;2023-03-12T13:41:37;4.13;;;2.85;;
34278;SDS011;20538;51.528;9.942;2023-03-12T13:44:21;7.20;;;3.53;;
34278;SDS011;20538;51.528;9.942;2023-03-12T13:46:48;6.85;;;3.67;;
34278;SDS011;20538;51.528;9.942;2023-03-12T13:49:34;11.25;;;5.07;;
34278;SDS011;20538;51.528;9.942;2023-03-12T13:54:46;7.25;;;3.40;;
34278;SDS011;20538;51.528;9.942;2023-03-12T14:00:25;8.57;;;4.60;;
34278;SDS011;20538;51.528;9.942;2023-03-12T14:03:04;7.00;;;3.63;;
34278;SDS011;20538;51.528;9.942;2023-03-12T14:05:43;5.40;;;3.65;;
34278;SDS011;20538;51.528;9.942;2023-03-12T14:14:24;7.18;;;3.90;;
34278;SDS011;20538;51.528;9.942;2023-03-12T14:17:00;8.65;;;3.67;;
34278;SDS011;20538;51.528;9.942;2023-03-12T14:19:29;5.93;;;3.70;;
34278;SDS011;20538;51.528;9.942;2023-03-12T14:21:59;9.32;;;4.13;;
34278;SDS011;20538;51.528;9.942;2023-03-12T14:27:00;5.75;;;4.28;;
34278;SDS011;20538;51.528;9.942;2023-03-12T14:29:38;8.73;;;5.00;;
34278;SDS011;20538;51.528;9.942;2023-03-12T14:32:15;7.25;;;4.55;;
34278;SDS011;20538;51.528;9.942;2023-03-12T14:34:49;7.75;;;4.43;;
34278;SDS011;20538;51.528;9.942;2023-03-12T14:37:39;5.95;;;4.15;;
34278;SDS011;20538;51.528;9.942;2023-03-12T14:40:34;13.25;;;5.35;;
34278;SDS011;20538;51.528;9.942;2023-03-12T14:43:20;7.20;;;4.55;;
34278;SDS011;20538;51.528;9.942;2023-03-12T14:45:55;8.73;;;4.75;;
34278;SDS011;20538;51.528;9.942;2023-03-12T14:48:23;8.32;;;5.20;;
34278;SDS011;20538;51.528;9.942;2023-03-12T14:50:53;7.65;;;4.88;;
34278;SDS011;20538;51.528;9.942;2023-03-12T14:53:24;6.90;;;3.80;;
34278;SDS011;20538;51.528;9.942;2023-03-12T14:56:02;6.70;;;4.07;;
34278;SDS011;20538;51.528;9.942;2023-03-12T14:58:48;9.15;;;4.90;;
34278;SDS011;20538;51.528;9.942;2023-03-12T15:01:19;14.93;;;5.53;;
34278;SDS011;20538;51.528;9.942;2023-03-12T15:03:55;10.95;;;5.32;;
34278;SDS011;20538;51.528;9.942;2023-03-12T15:09:02;10.70;;;5.95;;
34278;SDS011;20538;51.528;9.942;2023-03-12T15:11:29;11.95;;;6.43;;
34278;SDS011;20538;51.528;9.942;2023-03-12T15:14:04;10.30;;;5.38;;
34278;SDS011;20538;51.528;9.942;2023-03-12T15:16:33;7.80;;;4.82;;
34278;SDS011;20538;51.528;9.942;2023-03-12T15:19:00;7.32;;;4.88;;
34278;SDS011;20538;51.528;9.942;2023-03-12T15:21:27;7.32;;;5.10;;
34278;SDS011;20538;51.528;9.942;2023-03-12T15:23:55;8.70;;;4.43;;
34278;SDS011;20538;51.528;9.942;2023-03-12T15:31:24;10.57;;;5.35;;
34278;SDS011;20538;51.528;9.942;2023-03-12T15:34:03;9.20;;;5.57;;
34278;SDS011;20538;51.528;9.942;2023-03-12T15:36:30;7.38;;;4.82;;
34278;SDS011;20538;51.528;9.942;2023-03-12T15:39:02;5.80;;;4.20;;
34278;SDS011;20538;51.528;9.942;2023-03-12T15:41:45;8.02;;;4.40;;
34278;SDS011;20538;51.528;9.942;2023-03-12T15:44:16;11.23;;;5.13;;
34278;SDS011;20538;51.528;9.942;2023-03-12T15:46:45;6.38;;;4.45;;
34278;SDS011;20538;51.528;9.942;2023-03-12T15:49:20;9.80;;;4.82;;
34278;SDS011;20538;51.528;9.942;2023-03-12T15:51:58;6.93;;;4.57;;
34278;SDS011;20538;51.528;9.942;2023-03-12T15:54:28;7.60;;;4.85;;
34278;SDS011;20538;51.528;9.942;2023-03-12T15:57:10;8.02;;;5.15;;
34278;SDS011;20538;51.528;9.942;2023-03-12T15:59:43;6.85;;;4.43;;
34278;SDS011;20538;51.528;9.942;2023-03-12T16:02:09;6.90;;;4.68;;
34278;SDS011;20538;51.528;9.942;2023-03-12T16:04:36;6.22;;;4.32;;
34278;SDS011;20538;51.528;9.942;2023-03-12T16:07:02;6.20;;;4.22;;
34278;SDS011;20538;51.528;9.942;2023-03-12T16:09:28;5.15;;;3.92;;
34278;SDS011;20538;51.528;9.942;2023-03-12T16:11:57;6.97;;;3.92;;
34278;SDS011;20538;51.528;9.942;2023-03-12T16:14:23;5.10;;;3.53;;
34278;SDS011;20538;51.528;9.942;2023-03-12T16:16:54;5.05;;;3.78;;
34278;SDS011;20538;51.528;9.942;2023-03-12T16:19:21;5.57;;;3.53;;
34278;SDS011;20538;51.528;9.942;2023-03-12T16:21:47;5.65;;;3.78;;
34278;SDS011;20538;51.528;9.942;2023-03-12T16:24:13;7.25;;;3.90;;
34278;SDS011;20538;51.528;9.942;2023-03-12T16:26:58;5.47;;;3.90;;
34278;SDS011;20538;51.528;9.942;2023-03-12T16:29:27;6.63;;;4.13;;
34278;SDS011;20538;51.528;9.942;2023-03-12T16:32:00;7.45;;;4.47;;
34278;SDS011;20538;51.528;9.942;2023-03-12T16:34:26;7.97;;;3.75;;
34278;SDS011;20538;51.528;9.942;2023-03-12T16:36:52;5.70;;;4.03;;
34278;SDS011;20538;51.528;9.942;2023-03-12T16:39:18;6.50;;;4.18;;
34278;SDS011;20538;51.528;9.942;2023-03-12T16:41:44;8.95;;;4.75;;
34278;SDS011;20538;51.528;9.942;2023-03-12T16:44:17;6.43;;;4.25;;
34278;SDS011;20538;51.528;9.942;2023-03-12T16:46:45;6.50;;;4.22;;
34278;SDS011;20538;51.528;9.942;2023-03-12T16:49:14;6.70;;;4.07;;
34278;SDS011;20538;51.528;9.942;2023-03-12T16:51:41;9.80;;;4.10;;
34278;SDS011;20538;51.528;9.942;2023-03-12T16:54:07;8.48;;;4.13;;
34278;SDS011;20538;51.528;9.942;2023-03-12T16:56:33;7.63;;;4.43;;
34278;SDS011;20538;51.528;9.942;2023-03-12T16:59:01;7.72;;;4.32;;
34278;SDS011;20538;51.528;9.942;2023-03-12T17:01:29;5.95;;;4.07;;
34278;SDS011;20538;51.528;9.942;2023-03-12T17:03:55;7.25;;;4.10;;
34278;SDS011;20538;51.528;9.942;2023-03-12T17:06:24;6.13;;;4.68;;
34278;SDS011;20538;51.528;9.942;2023-03-12T17:08:51;8.77;;;4.78;;
34278;SDS011;20538;51.528;9.942;2023-03-12T17:13:45;9.05;;;5.10;;
34278;SDS011;20538;51.528;9.942;2023-03-12T17:16:14;6.35;;;4.43;;